createdAt,value
2018-05-14T00:00:46.347Z,8.43
2018-05-14T00:03:14.727Z,9.60
2018-05-14T00:05:43.109Z,8.83
2018-05-14T00:08:11.483Z,10.97
2018-05-14T00:10:39.849Z,10.57
2018-05-14T00:13:08.220Z,10.60
2018-05-14T00:15:36.599Z,10.63
2018-05-14T00:18:06.727Z,9.67
2018-05-14T00:20:36.009Z,9.33
2018-05-14T00:23:05.164Z,9.60
2018-05-14T00:25:41.603Z,9.00
2018-05-14T00:28:09.990Z,11.50
2018-05-14T00:30:39.769Z,11.40
2018-05-14T00:33:08.735Z,10.27
2018-05-14T00:35:47.073Z,8.90
2018-05-14T00:38:15.494Z,9.07
2018-05-14T00:40:44.117Z,9.47
2018-05-14T00:43:12.939Z,9.63
2018-05-14T00:45:42.119Z,11.00
2018-05-14T00:48:10.509Z,11.63
2018-05-14T00:50:38.902Z,9.53
2018-05-14T00:53:07.284Z,10.97
2018-05-14T00:55:40.841Z,10.80
2018-05-14T00:58:09.214Z,11.23
2018-05-14T01:00:42.555Z,10.93
2018-05-14T01:03:10.934Z,11.73
2018-05-14T01:05:39.542Z,11.27
2018-05-14T01:08:07.910Z,10.90
2018-05-14T01:10:36.276Z,9.90
2018-05-14T01:13:04.705Z,11.77
2018-05-14T01:15:33.092Z,10.70
2018-05-14T01:18:01.492Z,11.20
2018-05-14T01:20:29.924Z,11.90
2018-05-14T01:22:58.568Z,11.20
2018-05-14T01:25:26.944Z,11.80
2018-05-14T01:27:55.327Z,13.37
2018-05-14T01:30:23.697Z,12.40
2018-05-14T01:32:52.073Z,12.33
2018-05-14T01:35:31.861Z,12.80
2018-05-14T01:38:00.254Z,12.17
2018-05-14T01:40:28.622Z,13.03
2018-05-14T01:42:56.672Z,10.77
2018-05-14T01:45:34.156Z,10.87
2018-05-14T01:48:02.536Z,12.97
2018-05-14T01:50:31.617Z,11.80
2018-05-14T01:52:59.997Z,10.60
2018-05-14T01:55:28.395Z,11.17
2018-05-14T01:57:56.789Z,11.93
2018-05-14T02:00:38.397Z,10.90
2018-05-14T02:03:06.797Z,11.80
2018-05-14T02:05:35.177Z,11.80
2018-05-14T02:08:03.564Z,11.13
2018-05-14T02:10:36.929Z,10.20
2018-05-14T02:13:05.313Z,11.03
2018-05-14T02:15:33.696Z,10.90
2018-05-14T02:18:02.081Z,12.63
2018-05-14T02:20:31.201Z,11.57
2018-05-14T02:22:59.602Z,11.30
2018-05-14T02:25:27.986Z,13.47
2018-05-14T02:27:56.675Z,12.20
2018-05-14T02:30:25.046Z,10.67
2018-05-14T02:32:53.668Z,12.20
2018-05-14T02:35:29.216Z,10.20
2018-05-14T02:37:57.592Z,10.27
2018-05-14T02:40:25.649Z,10.63
2018-05-14T02:42:54.038Z,9.80
2018-05-14T02:45:22.426Z,9.83
2018-05-14T02:47:50.794Z,9.80
2018-05-14T02:50:30.565Z,10.10
2018-05-14T02:52:58.940Z,10.70
2018-05-14T02:55:27.328Z,9.03
2018-05-14T02:57:55.723Z,10.37
2018-05-14T03:03:14.626Z,9.80
2018-05-14T03:05:59.902Z,9.80
2018-05-14T03:08:28.284Z,9.73
2018-05-14T03:10:56.661Z,11.03
2018-05-14T03:13:25.036Z,11.73
2018-05-14T03:15:54.970Z,10.03
2018-05-14T03:18:23.353Z,11.03
2018-05-14T03:20:51.734Z,9.30
2018-05-14T03:23:20.113Z,8.63
2018-05-14T03:25:48.491Z,8.13
2018-05-14T03:28:16.856Z,8.80
2018-05-14T03:30:45.228Z,10.10
2018-05-14T03:33:13.610Z,7.87
2018-05-14T03:35:52.698Z,8.07
2018-05-14T03:38:21.105Z,7.47
2018-05-14T03:41:08.794Z,7.33
2018-05-14T03:43:37.157Z,6.90
2018-05-14T03:46:05.523Z,7.77
2018-05-14T03:48:33.902Z,6.83
2018-05-14T03:51:03.040Z,13.00
2018-05-14T03:53:31.420Z,13.00
2018-05-14T03:55:59.866Z,6.60
2018-05-14T03:58:39.224Z,6.13
2018-05-14T04:01:20.985Z,6.40
2018-05-14T04:04:00.520Z,6.00
2018-05-14T04:06:37.873Z,5.77
2018-05-14T04:09:05.669Z,5.83
2018-05-14T04:11:35.703Z,5.67
2018-05-14T04:14:05.024Z,4.87
2018-05-14T04:16:33.386Z,4.20
2018-05-14T04:19:01.754Z,4.87
2018-05-14T04:21:30.129Z,5.33
2018-05-14T04:23:58.498Z,5.10
2018-05-14T04:26:26.892Z,5.37
2018-05-14T04:28:55.289Z,4.60
2018-05-14T04:34:16.120Z,5.20
2018-05-14T04:36:44.498Z,6.03
2018-05-14T04:39:13.910Z,6.60
2018-05-14T04:41:42.931Z,6.03
2018-05-14T04:44:11.321Z,5.87
2018-05-14T04:46:39.696Z,5.10
2018-05-14T04:49:08.065Z,5.50
2018-05-14T04:51:36.451Z,5.77
2018-05-14T04:54:04.834Z,5.03
2018-05-14T04:56:33.255Z,5.37
2018-05-14T04:59:02.961Z,5.77
2018-05-14T05:01:31.344Z,4.80
2018-05-14T05:03:59.720Z,5.37
2018-05-14T05:06:28.749Z,4.33
2018-05-14T05:08:57.131Z,4.70
2018-05-14T05:11:25.530Z,5.03
2018-05-14T05:13:54.092Z,4.90
2018-05-14T05:16:22.458Z,4.77
2018-05-14T05:18:50.885Z,4.50
2018-05-14T05:21:19.257Z,4.53
2018-05-14T05:23:47.643Z,4.00
2018-05-14T05:26:16.005Z,5.10
2018-05-14T05:28:44.181Z,3.77
2018-05-14T05:33:46.751Z,5.53
2018-05-14T05:36:15.747Z,5.10
2018-05-14T05:38:44.117Z,4.50
2018-05-14T05:41:12.497Z,4.57
2018-05-14T05:43:40.876Z,4.60
2018-05-14T05:46:09.258Z,4.60
2018-05-14T05:48:37.659Z,3.83
2018-05-14T05:51:06.025Z,5.37
2018-05-14T05:53:34.405Z,4.23
2018-05-14T05:56:02.774Z,3.73
2018-05-14T05:58:31.212Z,4.20
2018-05-14T06:00:59.604Z,4.50
2018-05-14T06:03:28.197Z,4.50
2018-05-14T06:05:56.572Z,4.60
2018-05-14T06:08:24.942Z,4.10
2018-05-14T06:10:57.994Z,4.47
2018-05-14T06:13:26.364Z,3.83
2018-05-14T06:16:00.872Z,3.60
2018-05-14T06:18:29.272Z,3.13
2018-05-14T06:20:57.692Z,3.33
2018-05-14T06:23:26.074Z,3.53
2018-05-14T06:25:54.486Z,3.37
2018-05-14T06:28:22.853Z,4.10
2018-05-14T06:30:51.270Z,3.63
2018-05-14T06:33:19.691Z,3.30
2018-05-14T06:35:48.079Z,4.57
2018-05-14T06:38:16.695Z,3.70
2018-05-14T06:40:47.951Z,3.40
2018-05-14T06:43:16.330Z,4.13
2018-05-14T06:45:44.753Z,3.67
2018-05-14T06:48:13.151Z,3.30
2018-05-14T06:50:41.513Z,3.97
2018-05-14T06:53:09.910Z,3.67
2018-05-14T06:55:38.273Z,3.30
2018-05-14T06:58:06.666Z,3.23
2018-05-14T07:00:35.244Z,3.83
2018-05-14T07:03:03.674Z,3.60
2018-05-14T07:05:37.001Z,3.40
2018-05-14T07:08:05.410Z,3.77
2018-05-14T07:10:33.777Z,4.20
2018-05-14T07:13:02.160Z,3.77
2018-05-14T07:15:30.563Z,4.50
2018-05-14T07:17:58.934Z,3.87
2018-05-14T07:20:27.319Z,3.40
2018-05-14T07:22:55.704Z,3.40
2018-05-14T07:25:25.935Z,3.80
2018-05-14T07:27:54.822Z,3.60
2018-05-14T07:30:23.215Z,3.73
2018-05-14T07:32:52.291Z,4.10
2018-05-14T07:35:21.013Z,3.70
2018-05-14T07:37:49.379Z,3.47
2018-05-14T07:40:19.834Z,3.50
2018-05-14T07:42:48.203Z,3.43
2018-05-14T07:45:19.045Z,3.23
2018-05-14T07:47:47.405Z,4.27
2018-05-14T07:50:18.353Z,4.47
2018-05-14T07:52:46.722Z,3.83
2018-05-14T07:55:17.400Z,4.73
2018-05-14T07:57:45.941Z,3.80
2018-05-14T08:00:16.781Z,3.60
2018-05-14T08:02:46.958Z,3.70
2018-05-14T08:05:16.833Z,3.47
2018-05-14T08:07:45.200Z,4.20
2018-05-14T08:10:14.601Z,3.63
2018-05-14T08:12:42.968Z,3.90
2018-05-14T08:15:12.941Z,3.43
2018-05-14T08:17:41.327Z,4.10
2018-05-14T08:20:11.224Z,4.70
2018-05-14T08:22:39.619Z,4.10
2018-05-14T08:25:08.020Z,4.17
2018-05-14T08:27:36.424Z,3.83
2018-05-14T08:30:04.471Z,4.67
2018-05-14T08:32:32.895Z,4.10
2018-05-14T08:35:01.281Z,3.70
2018-05-14T08:37:30.403Z,4.03
2018-05-14T08:39:58.784Z,4.67
2018-05-14T08:42:27.168Z,3.70
2018-05-14T08:44:55.543Z,4.77
2018-05-14T08:47:23.926Z,4.27
2018-05-14T08:49:52.319Z,5.17
2018-05-14T08:52:20.690Z,4.17
2018-05-14T08:54:49.084Z,3.70
2018-05-14T08:57:17.460Z,3.80
2018-05-14T08:59:45.828Z,3.40
2018-05-14T09:02:14.191Z,4.37
2018-05-14T09:04:42.263Z,3.47
2018-05-14T09:07:10.641Z,4.00
2018-05-14T09:09:39.062Z,4.07
2018-05-14T09:12:07.434Z,4.67
2018-05-14T09:14:35.900Z,4.30
2018-05-14T09:17:04.402Z,4.63
2018-05-14T09:19:33.049Z,4.20
2018-05-14T09:22:01.553Z,3.93
2018-05-14T09:24:29.923Z,4.73
2018-05-14T09:26:58.313Z,3.37
2018-05-14T09:29:27.155Z,4.23
2018-05-14T09:31:55.517Z,4.27
2018-05-14T09:34:23.905Z,4.20
2018-05-14T09:36:52.278Z,4.43
2018-05-14T09:39:20.655Z,5.23
2018-05-14T09:41:49.031Z,4.80
2018-05-14T09:44:17.434Z,4.30
2018-05-14T09:46:46.019Z,3.70
2018-05-14T09:49:14.412Z,3.97
2018-05-14T09:51:43.501Z,4.90
2018-05-14T09:54:11.865Z,4.63
2018-05-14T09:56:40.221Z,4.80
2018-05-14T09:59:08.602Z,4.40
2018-05-14T10:01:37.605Z,4.07
2018-05-14T10:04:05.978Z,5.00
2018-05-14T10:06:34.348Z,4.17
2018-05-14T10:09:02.725Z,4.70
2018-05-14T10:11:31.093Z,4.60
2018-05-14T10:13:59.468Z,5.00
2018-05-14T10:16:28.838Z,5.07
2018-05-14T10:18:56.997Z,4.17
2018-05-14T10:21:25.372Z,4.60
2018-05-14T10:23:53.761Z,4.33
2018-05-14T10:26:22.122Z,4.20
2018-05-14T10:28:50.504Z,4.33
2018-05-14T10:31:18.876Z,5.03
2018-05-14T10:33:48.047Z,3.97
2018-05-14T10:36:16.457Z,4.47
2018-05-14T10:38:44.859Z,5.03
2018-05-14T10:41:13.017Z,5.23
2018-05-14T10:43:41.570Z,5.37
2018-05-14T10:46:09.958Z,4.60
2018-05-14T10:48:38.317Z,5.07
2018-05-14T10:51:06.700Z,4.70
2018-05-14T10:53:35.065Z,3.73
2018-05-14T10:56:03.698Z,3.90
2018-05-14T10:58:32.144Z,4.70
2018-05-14T11:01:00.662Z,3.43
2018-05-14T11:03:29.038Z,4.93
2018-05-14T11:05:59.415Z,5.47
2018-05-14T11:08:28.785Z,4.43
2018-05-14T11:10:57.150Z,5.20
2018-05-14T11:13:25.581Z,4.53
2018-05-14T11:15:53.958Z,4.20
2018-05-14T11:18:22.351Z,4.17
2018-05-14T11:20:51.560Z,4.10
2018-05-14T11:23:22.010Z,3.93
2018-05-14T11:25:51.839Z,5.07
2018-05-14T11:28:22.025Z,5.47
2018-05-14T11:30:50.595Z,4.47
2018-05-14T11:33:19.152Z,4.73
2018-05-14T11:35:47.532Z,5.13
2018-05-14T11:38:22.859Z,5.80
2018-05-14T11:40:51.994Z,4.87
2018-05-14T11:43:20.373Z,5.73
2018-05-14T11:45:48.750Z,4.70
2018-05-14T11:48:17.129Z,5.97
2018-05-14T11:50:45.514Z,5.30
2018-05-14T11:53:14.123Z,5.57
2018-05-14T11:55:42.496Z,4.13
2018-05-14T11:58:10.855Z,4.10
2018-05-14T12:00:39.215Z,4.70
2018-05-14T12:03:07.636Z,3.87
2018-05-14T12:05:36.176Z,5.13
2018-05-14T12:08:04.559Z,5.60
2018-05-14T12:10:33.997Z,5.27
2018-05-14T12:13:02.387Z,4.83
2018-05-14T12:15:30.762Z,5.10
2018-05-14T12:17:59.157Z,4.80
2018-05-14T12:20:27.718Z,5.20
2018-05-14T12:22:56.094Z,5.67
2018-05-14T12:25:26.232Z,4.50
2018-05-14T12:27:54.615Z,5.20
2018-05-14T12:30:25.393Z,4.50
2018-05-14T12:32:53.820Z,3.80
2018-05-14T12:35:25.520Z,4.80
2018-05-14T12:37:53.888Z,4.07
2018-05-14T12:40:22.276Z,5.10
2018-05-14T12:42:51.403Z,4.90
2018-05-14T12:45:19.818Z,4.73
2018-05-14T12:47:48.197Z,5.10
2018-05-14T12:50:18.540Z,5.30
2018-05-14T12:52:46.952Z,4.40
2018-05-14T12:55:19.721Z,5.30
2018-05-14T12:57:48.110Z,4.20
2018-05-14T13:00:21.374Z,4.80
2018-05-14T13:02:49.739Z,5.23
2018-05-14T13:05:20.518Z,5.43
2018-05-14T13:07:48.897Z,5.30
2018-05-14T13:12:53.044Z,4.73
2018-05-14T13:15:21.430Z,5.03
2018-05-14T13:17:49.826Z,5.13
2018-05-14T13:20:18.397Z,4.70
2018-05-14T13:22:46.808Z,4.77
2018-05-14T13:25:15.259Z,5.00
2018-05-14T13:27:43.662Z,4.83
2018-05-14T13:30:15.756Z,5.73
2018-05-14T13:32:45.063Z,4.47
2018-05-14T13:35:13.505Z,4.97
2018-05-14T13:37:41.927Z,5.47
2018-05-14T13:40:11.429Z,4.70
2018-05-14T13:42:40.378Z,4.90
2018-05-14T13:45:09.111Z,5.53
2018-05-14T13:47:39.292Z,5.73
2018-05-14T13:50:07.669Z,5.57
2018-05-14T13:52:36.500Z,5.20
2018-05-14T13:55:05.609Z,4.97
2018-05-14T13:57:33.973Z,5.40
2018-05-14T14:00:02.346Z,5.07
2018-05-14T14:02:30.724Z,5.50
2018-05-14T14:04:59.198Z,4.93
2018-05-14T14:07:27.703Z,5.10
2018-05-14T14:09:56.077Z,5.67
2018-05-14T14:12:24.444Z,5.00
2018-05-14T14:14:52.817Z,5.43
2018-05-14T14:17:21.182Z,5.30
2018-05-14T14:19:49.610Z,4.83
2018-05-14T14:22:17.997Z,4.37
2018-05-14T14:24:46.397Z,5.10
2018-05-14T14:27:14.788Z,5.10
2018-05-14T14:29:43.171Z,5.00
2018-05-14T14:32:11.758Z,4.80
2018-05-14T14:34:40.198Z,4.80
2018-05-14T14:37:09.143Z,5.30
2018-05-14T14:39:37.610Z,4.87
2018-05-14T14:42:06.060Z,4.33
2018-05-14T14:44:34.560Z,5.50
2018-05-14T14:47:02.925Z,5.03
2018-05-14T14:49:31.329Z,4.17
2018-05-14T14:51:59.704Z,4.90
2018-05-14T14:54:28.078Z,4.77
2018-05-14T14:56:56.474Z,5.00
2018-05-14T14:59:24.890Z,4.80
2018-05-14T15:01:53.422Z,6.93
2018-05-14T15:04:21.792Z,5.40
2018-05-14T15:06:50.220Z,4.90
2018-05-14T15:09:18.599Z,4.90
2018-05-14T15:11:46.985Z,5.10
2018-05-14T15:14:15.351Z,5.00
2018-05-14T15:16:43.728Z,5.00
2018-05-14T15:19:12.116Z,5.67
2018-05-14T15:21:40.488Z,4.70
2018-05-14T15:24:08.847Z,4.53
2018-05-14T15:26:37.220Z,5.27
2018-05-14T15:29:05.620Z,5.40
2018-05-14T15:31:34.015Z,4.77
2018-05-14T15:34:02.389Z,5.00
2018-05-14T15:36:30.753Z,7.20
2018-05-14T15:38:59.123Z,5.10
2018-05-14T15:41:27.494Z,5.37
2018-05-14T15:43:55.863Z,4.80
2018-05-14T15:46:24.235Z,4.87
2018-05-14T15:48:52.620Z,4.67
2018-05-14T15:51:22.668Z,5.80
2018-05-14T15:53:51.037Z,5.90
2018-05-14T15:56:19.559Z,4.73
2018-05-14T15:58:48.028Z,4.57
2018-05-14T16:01:23.743Z,4.87
2018-05-14T16:03:52.205Z,4.53
2018-05-14T16:06:20.580Z,5.50
2018-05-14T16:08:48.959Z,5.90
2018-05-14T16:11:17.325Z,5.20
2018-05-14T16:13:45.936Z,5.90
2018-05-14T16:16:14.309Z,4.47
2018-05-14T16:18:42.682Z,4.40
2018-05-14T16:21:11.125Z,5.53
2018-05-14T16:23:39.532Z,5.40
2018-05-14T16:26:07.910Z,5.00
2018-05-14T16:28:36.305Z,4.80
2018-05-14T16:31:04.700Z,5.17
2018-05-14T16:33:33.109Z,4.50
2018-05-14T16:36:01.497Z,4.13
2018-05-14T16:38:29.891Z,5.60
2018-05-14T16:40:57.930Z,5.30
2018-05-14T16:43:26.301Z,4.97
2018-05-14T16:45:54.478Z,4.97
2018-05-14T16:48:22.874Z,6.03
2018-05-14T16:50:51.272Z,6.80
2018-05-14T16:53:19.653Z,5.83
2018-05-14T16:55:48.039Z,5.47
2018-05-14T16:58:16.416Z,6.00
2018-05-14T17:00:45.002Z,5.67
2018-05-14T17:03:13.372Z,5.60
2018-05-14T17:05:41.761Z,5.40
2018-05-14T17:08:10.159Z,6.73
2018-05-14T17:10:38.540Z,6.10
2018-05-14T17:13:07.853Z,6.17
2018-05-14T17:15:43.260Z,5.83
2018-05-14T17:18:11.637Z,6.70
2018-05-14T17:20:40.030Z,5.60
2018-05-14T17:23:08.646Z,5.37
2018-05-14T17:25:41.895Z,6.03
2018-05-14T17:28:10.268Z,7.03
2018-05-14T17:30:38.646Z,6.33
2018-05-14T17:33:07.070Z,7.13
2018-05-14T17:35:35.457Z,7.20
2018-05-14T17:38:03.852Z,5.40
2018-05-14T17:40:32.260Z,6.57
2018-05-14T17:43:00.658Z,6.60
2018-05-14T17:45:29.056Z,7.80
2018-05-14T17:47:57.441Z,7.00
2018-05-14T17:53:08.245Z,6.10
2018-05-14T17:55:36.621Z,7.20
2018-05-14T17:58:04.997Z,7.30
2018-05-14T18:00:33.377Z,7.10
2018-05-14T18:03:01.762Z,6.80
2018-05-14T18:05:30.238Z,6.30
2018-05-14T18:07:58.656Z,6.63
2018-05-14T18:10:36.423Z,6.30
2018-05-14T18:13:04.901Z,6.97
2018-05-14T18:15:33.269Z,7.00
2018-05-14T18:18:01.749Z,7.50
2018-05-14T18:20:30.063Z,6.17
2018-05-14T18:22:58.901Z,7.10
2018-05-14T18:25:33.141Z,7.20
2018-05-14T18:28:01.273Z,5.83
2018-05-14T18:30:29.428Z,7.50
2018-05-14T18:33:02.689Z,7.10
2018-05-14T18:35:42.861Z,6.80
2018-05-14T18:38:11.259Z,7.50
2018-05-14T18:40:48.818Z,7.00
2018-05-14T18:43:17.236Z,6.20
2018-05-14T18:45:45.620Z,7.17
2018-05-14T18:48:13.993Z,7.60
2018-05-14T18:50:42.440Z,7.77
2018-05-14T18:53:10.814Z,7.30
2018-05-14T18:55:39.188Z,6.97
2018-05-14T18:58:07.232Z,7.03
2018-05-14T19:00:35.595Z,7.90
2018-05-14T19:03:05.013Z,8.00
2018-05-14T19:05:33.389Z,7.30
2018-05-14T19:08:01.825Z,6.87
2018-05-14T19:10:37.750Z,7.57
2018-05-14T19:13:06.940Z,7.40
2018-05-14T19:15:40.607Z,7.40
2018-05-14T19:18:08.994Z,8.63
2018-05-14T19:20:37.419Z,6.70
2018-05-14T19:23:11.122Z,7.03
2018-05-14T19:25:39.834Z,8.17
2018-05-14T19:28:13.753Z,6.87
2018-05-14T19:30:42.353Z,6.80
2018-05-14T19:33:10.495Z,8.30
2018-05-14T19:35:44.125Z,8.20
2018-05-14T19:38:12.510Z,7.20
2018-05-14T19:40:46.336Z,7.77
2018-05-14T19:43:15.291Z,7.83
2018-05-14T19:45:56.287Z,7.63
2018-05-14T19:48:24.908Z,8.00
2018-05-14T19:50:53.423Z,7.80
2018-05-14T19:53:21.932Z,7.23
2018-05-14T19:55:50.295Z,8.43
2018-05-14T19:58:18.704Z,8.10
2018-05-14T20:00:47.078Z,7.20
2018-05-14T20:03:15.263Z,8.80
2018-05-14T20:05:43.822Z,7.70
2018-05-14T20:08:12.193Z,8.23
2018-05-14T20:10:40.600Z,7.57
2018-05-14T20:13:08.984Z,7.03
2018-05-14T20:15:37.363Z,8.33
2018-05-14T20:18:05.776Z,7.27
2018-05-14T20:20:34.146Z,8.37
2018-05-14T20:23:02.525Z,9.17
2018-05-14T20:25:30.905Z,8.70
2018-05-14T20:27:59.293Z,8.80
2018-05-14T20:30:27.773Z,7.83
2018-05-14T20:32:56.269Z,8.60
2018-05-14T20:35:36.441Z,8.47
2018-05-14T20:38:05.283Z,8.50
2018-05-14T20:40:41.061Z,7.87
2018-05-14T20:43:09.457Z,8.00
2018-05-14T20:45:37.844Z,9.30
2018-05-14T20:48:06.835Z,8.80
2018-05-14T20:50:35.207Z,7.90
2018-05-14T20:53:03.587Z,8.87
2018-05-14T20:55:31.962Z,8.20
2018-05-14T20:58:00.337Z,8.33
2018-05-14T21:00:28.812Z,8.07
2018-05-14T21:02:57.477Z,7.30
2018-05-14T21:05:35.644Z,8.50
2018-05-14T21:08:04.187Z,7.40
2018-05-14T21:10:35.849Z,8.97
2018-05-14T21:13:04.508Z,7.73
2018-05-14T21:15:39.677Z,9.20
2018-05-14T21:18:08.049Z,9.20
2018-05-14T21:20:36.574Z,8.90
2018-05-14T21:23:04.948Z,7.90
2018-05-14T21:25:33.411Z,8.43
2018-05-14T21:28:01.783Z,8.70
2018-05-14T21:30:30.866Z,7.80
2018-05-14T21:32:59.250Z,8.70
2018-05-14T21:35:27.919Z,8.43
2018-05-14T21:37:56.307Z,8.50
2018-05-14T21:40:24.714Z,7.93
2018-05-14T21:42:53.606Z,8.93
2018-05-14T21:45:24.790Z,8.93
2018-05-14T21:47:53.191Z,8.50
2018-05-14T21:50:21.747Z,9.00
2018-05-14T21:52:50.286Z,9.50
2018-05-14T21:55:26.062Z,8.50
2018-05-14T21:57:54.724Z,8.70
2018-05-14T22:00:23.267Z,9.10
2018-05-14T22:02:51.656Z,8.33
2018-05-14T22:05:20.041Z,9.40
2018-05-14T22:07:48.406Z,8.80
2018-05-14T22:10:21.791Z,9.43
2018-05-14T22:12:50.209Z,9.20
2018-05-14T22:15:22.611Z,8.30
2018-05-14T22:17:51.003Z,7.83
2018-05-14T22:20:19.376Z,8.00
2018-05-14T22:22:47.757Z,7.23
2018-05-14T22:25:26.144Z,6.53
2018-05-14T22:27:54.514Z,8.50
2018-05-14T22:30:22.906Z,8.10
2018-05-14T22:32:51.284Z,7.70
2018-05-14T22:35:31.070Z,8.73
2018-05-14T22:37:59.460Z,6.97
2018-05-14T22:40:30.656Z,7.57
2018-05-14T22:42:59.190Z,8.47
2018-05-14T22:45:36.230Z,8.10
2018-05-14T22:48:05.425Z,7.27
2018-05-14T22:50:34.358Z,7.93
2018-05-14T22:53:02.742Z,8.77
2018-05-14T22:55:46.982Z,8.37
2018-05-14T22:58:15.389Z,6.97
2018-05-14T23:03:19.529Z,7.43
2018-05-14T23:05:47.928Z,7.33
2018-05-14T23:08:16.061Z,5.93
2018-05-14T23:10:44.424Z,5.63
2018-05-14T23:13:12.817Z,6.10
2018-05-14T23:15:41.201Z,5.80
2018-05-14T23:18:09.579Z,5.73
2018-05-14T23:20:38.138Z,5.30
2018-05-14T23:23:07.512Z,5.53
2018-05-14T23:25:35.895Z,5.57
2018-05-14T23:28:04.045Z,5.70
2018-05-14T23:30:32.431Z,5.97
2018-05-14T23:33:00.825Z,6.10
2018-05-14T23:35:35.273Z,5.97
2018-05-14T23:38:03.662Z,6.10
2018-05-14T23:40:47.575Z,5.43
2018-05-14T23:43:15.957Z,5.60
2018-05-14T23:45:44.371Z,6.07
2018-05-14T23:48:12.905Z,5.57
2018-05-14T23:50:41.287Z,6.10
2018-05-14T23:53:09.854Z,5.00
2018-05-14T23:58:14.870Z,6.30
